sensor_id;sensor_type;location;lat;lon;timestamp;P1;durP1;ratioP1;P2;durP2;ratioP2
23730;SDS011;12046;44.702;10.622;2023-05-07T00:01:58;13.40;;;12.20;;
23730;SDS011;12046;44.702;10.622;2023-05-07T00:04:24;12.68;;;11.52;;
23730;SDS011;12046;44.702;10.622;2023-05-07T00:06:50;13.38;;;11.23;;
23730;SDS011;12046;44.702;10.622;2023-05-07T00:09:16;11.95;;;10.63;;
23730;SDS011;12046;44.702;10.622;2023-05-07T00:11:41;13.30;;;12.00;;
23730;SDS011;12046;44.702;10.622;2023-05-07T00:14:07;15.50;;;14.10;;
23730;SDS011;12046;44.702;10.622;2023-05-07T00:16:33;16.58;;;14.82;;
23730;SDS011;12046;44.702;10.622;2023-05-07T00:18:59;13.82;;;12.32;;
23730;SDS011;12046;44.702;10.622;2023-05-07T00:21:25;12.40;;;11.20;;
23730;SDS011;12046;44.702;10.622;2023-05-07T00:23:52;12.93;;;11.63;;
23730;SDS011;12046;44.702;10.622;2023-05-07T00:26:18;11.52;;;10.52;;
23730;SDS011;12046;44.702;10.622;2023-05-07T00:28:44;12.77;;;11.57;;
23730;SDS011;12046;44.702;10.622;2023-05-07T00:31:10;18.48;;;12.93;;
23730;SDS011;12046;44.702;10.622;2023-05-07T00:33:35;12.18;;;11.18;;
23730;SDS011;12046;44.702;10.622;2023-05-07T00:36:01;12.27;;;11.07;;
23730;SDS011;12046;44.702;10.622;2023-05-07T00:38:28;12.23;;;11.00;;
23730;SDS011;12046;44.702;10.622;2023-05-07T00:40:53;13.00;;;11.70;;
23730;SDS011;12046;44.702;10.622;2023-05-07T00:43:19;14.48;;;13.27;;
23730;SDS011;12046;44.702;10.622;2023-05-07T00:45:45;13.48;;;12.27;;
23730;SDS011;12046;44.702;10.622;2023-05-07T00:48:11;15.77;;;14.00;;
23730;SDS011;12046;44.702;10.622;2023-05-07T00:50:37;13.32;;;12.13;;
23730;SDS011;12046;44.702;10.622;2023-05-07T00:53:03;14.98;;;13.57;;
23730;SDS011;12046;44.702;10.622;2023-05-07T00:55:29;15.70;;;14.40;;
23730;SDS011;12046;44.702;10.622;2023-05-07T00:57:55;13.65;;;12.27;;
23730;SDS011;12046;44.702;10.622;2023-05-07T01:00:21;14.75;;;13.35;;
23730;SDS011;12046;44.702;10.622;2023-05-07T01:02:47;13.05;;;11.75;;
23730;SDS011;12046;44.702;10.622;2023-05-07T01:05:14;12.27;;;11.10;;
23730;SDS011;12046;44.702;10.622;2023-05-07T01:07:42;12.05;;;10.85;;
23730;SDS011;12046;44.702;10.622;2023-05-07T01:10:09;11.32;;;10.38;;
23730;SDS011;12046;44.702;10.622;2023-05-07T01:12:37;16.42;;;14.85;;
23730;SDS011;12046;44.702;10.622;2023-05-07T01:15:04;15.13;;;13.23;;
23730;SDS011;12046;44.702;10.622;2023-05-07T01:17:33;14.57;;;13.27;;
23730;SDS011;12046;44.702;10.622;2023-05-07T01:20:01;16.40;;;14.70;;
23730;SDS011;12046;44.702;10.622;2023-05-07T01:22:31;15.48;;;13.98;;
23730;SDS011;12046;44.702;10.622;2023-05-07T01:25:02;14.70;;;13.40;;
23730;SDS011;12046;44.702;10.622;2023-05-07T01:27:28;13.63;;;12.38;;
23730;SDS011;12046;44.702;10.622;2023-05-07T01:29:54;13.98;;;12.68;;
23730;SDS011;12046;44.702;10.622;2023-05-07T01:35:28;15.45;;;14.05;;
23730;SDS011;12046;44.702;10.622;2023-05-07T01:38:03;16.17;;;14.70;;
23730;SDS011;12046;44.702;10.622;2023-05-07T01:40:31;17.50;;;15.88;;
23730;SDS011;12046;44.702;10.622;2023-05-07T01:42:57;16.50;;;15.00;;
23730;SDS011;12046;44.702;10.622;2023-05-07T01:45:23;16.02;;;14.63;;
23730;SDS011;12046;44.702;10.622;2023-05-07T01:47:50;14.85;;;13.40;;
23730;SDS011;12046;44.702;10.622;2023-05-07T01:50:18;15.48;;;13.93;;
23730;SDS011;12046;44.702;10.622;2023-05-07T01:52:45;16.15;;;14.75;;
23730;SDS011;12046;44.702;10.622;2023-05-07T01:55:12;16.35;;;14.80;;
23730;SDS011;12046;44.702;10.622;2023-05-07T01:57:38;17.02;;;15.40;;
23730;SDS011;12046;44.702;10.622;2023-05-07T02:00:04;15.77;;;14.27;;
23730;SDS011;12046;44.702;10.622;2023-05-07T02:02:30;16.85;;;13.85;;
23730;SDS011;12046;44.702;10.622;2023-05-07T02:04:56;16.40;;;14.88;;
23730;SDS011;12046;44.702;10.622;2023-05-07T02:07:22;16.70;;;15.10;;
23730;SDS011;12046;44.702;10.622;2023-05-07T02:09:48;18.63;;;15.90;;
23730;SDS011;12046;44.702;10.622;2023-05-07T02:12:15;16.60;;;15.02;;
23730;SDS011;12046;44.702;10.622;2023-05-07T02:14:41;14.75;;;13.35;;
23730;SDS011;12046;44.702;10.622;2023-05-07T02:17:07;14.73;;;13.27;;
23730;SDS011;12046;44.702;10.622;2023-05-07T02:19:33;14.68;;;13.38;;
23730;SDS011;12046;44.702;10.622;2023-05-07T02:22:00;14.50;;;13.13;;
23730;SDS011;12046;44.702;10.622;2023-05-07T02:24:25;13.65;;;12.45;;
23730;SDS011;12046;44.702;10.622;2023-05-07T02:26:51;13.82;;;12.57;;
23730;SDS011;12046;44.702;10.622;2023-05-07T02:29:17;14.25;;;12.95;;
23730;SDS011;12046;44.702;10.622;2023-05-07T02:31:42;13.57;;;12.35;;
23730;SDS011;12046;44.702;10.622;2023-05-07T02:34:08;14.13;;;12.57;;
23730;SDS011;12046;44.702;10.622;2023-05-07T02:36:34;12.85;;;11.75;;
23730;SDS011;12046;44.702;10.622;2023-05-07T02:39:00;11.98;;;10.98;;
23730;SDS011;12046;44.702;10.622;2023-05-07T02:41:27;12.93;;;11.65;;
23730;SDS011;12046;44.702;10.622;2023-05-07T02:43:53;12.35;;;11.20;;
23730;SDS011;12046;44.702;10.622;2023-05-07T02:46:19;14.40;;;13.00;;
23730;SDS011;12046;44.702;10.622;2023-05-07T02:48:45;18.27;;;16.52;;
23730;SDS011;12046;44.702;10.622;2023-05-07T02:51:11;16.15;;;14.63;;
23730;SDS011;12046;44.702;10.622;2023-05-07T02:53:37;15.70;;;14.30;;
23730;SDS011;12046;44.702;10.622;2023-05-07T02:56:03;14.48;;;13.05;;
23730;SDS011;12046;44.702;10.622;2023-05-07T02:58:30;14.18;;;12.80;;
23730;SDS011;12046;44.702;10.622;2023-05-07T03:00:56;13.98;;;12.77;;
23730;SDS011;12046;44.702;10.622;2023-05-07T03:03:23;14.85;;;13.45;;
23730;SDS011;12046;44.702;10.622;2023-05-07T03:05:48;16.80;;;15.18;;
23730;SDS011;12046;44.702;10.622;2023-05-07T03:08:14;16.60;;;14.88;;
23730;SDS011;12046;44.702;10.622;2023-05-07T03:10:40;16.88;;;15.23;;
23730;SDS011;12046;44.702;10.622;2023-05-07T03:13:06;16.90;;;15.30;;
23730;SDS011;12046;44.702;10.622;2023-05-07T03:15:32;17.85;;;16.08;;
23730;SDS011;12046;44.702;10.622;2023-05-07T03:17:57;16.13;;;14.63;;
23730;SDS011;12046;44.702;10.622;2023-05-07T03:20:23;16.85;;;14.93;;
23730;SDS011;12046;44.702;10.622;2023-05-07T03:22:49;16.52;;;15.02;;
23730;SDS011;12046;44.702;10.622;2023-05-07T03:25:15;18.13;;;16.23;;
23730;SDS011;12046;44.702;10.622;2023-05-07T03:27:41;22.98;;;20.58;;
23730;SDS011;12046;44.702;10.622;2023-05-07T03:30:10;19.10;;;17.30;;
23730;SDS011;12046;44.702;10.622;2023-05-07T03:32:36;18.27;;;16.55;;
23730;SDS011;12046;44.702;10.622;2023-05-07T03:35:02;17.85;;;16.00;;
23730;SDS011;12046;44.702;10.622;2023-05-07T03:37:28;18.08;;;16.13;;
23730;SDS011;12046;44.702;10.622;2023-05-07T03:39:53;19.38;;;17.48;;
23730;SDS011;12046;44.702;10.622;2023-05-07T03:42:20;19.90;;;17.90;;
23730;SDS011;12046;44.702;10.622;2023-05-07T03:44:46;19.88;;;17.88;;
23730;SDS011;12046;44.702;10.622;2023-05-07T03:47:12;20.00;;;17.90;;
23730;SDS011;12046;44.702;10.622;2023-05-07T03:49:38;17.90;;;16.20;;
23730;SDS011;12046;44.702;10.622;2023-05-07T03:52:05;18.98;;;17.27;;
23730;SDS011;12046;44.702;10.622;2023-05-07T03:54:30;17.60;;;15.90;;
23730;SDS011;12046;44.702;10.622;2023-05-07T03:56:56;18.48;;;16.85;;
23730;SDS011;12046;44.702;10.622;2023-05-07T03:59:22;17.67;;;16.02;;
23730;SDS011;12046;44.702;10.622;2023-05-07T04:01:48;17.25;;;15.50;;
23730;SDS011;12046;44.702;10.622;2023-05-07T04:04:14;16.83;;;15.30;;
23730;SDS011;12046;44.702;10.622;2023-05-07T04:06:40;16.42;;;14.93;;
23730;SDS011;12046;44.702;10.622;2023-05-07T04:09:06;17.95;;;16.17;;
23730;SDS011;12046;44.702;10.622;2023-05-07T04:11:32;17.50;;;15.70;;
23730;SDS011;12046;44.702;10.622;2023-05-07T04:13:58;16.60;;;15.10;;
23730;SDS011;12046;44.702;10.622;2023-05-07T04:16:24;17.38;;;15.77;;
23730;SDS011;12046;44.702;10.622;2023-05-07T04:18:50;18.70;;;17.00;;
23730;SDS011;12046;44.702;10.622;2023-05-07T04:21:16;17.45;;;15.75;;
23730;SDS011;12046;44.702;10.622;2023-05-07T04:23:43;17.30;;;15.68;;
23730;SDS011;12046;44.702;10.622;2023-05-07T04:26:10;19.20;;;17.40;;
23730;SDS011;12046;44.702;10.622;2023-05-07T04:28:36;17.42;;;15.85;;
23730;SDS011;12046;44.702;10.622;2023-05-07T04:31:02;17.25;;;15.55;;
23730;SDS011;12046;44.702;10.622;2023-05-07T04:33:28;20.20;;;15.68;;
23730;SDS011;12046;44.702;10.622;2023-05-07T04:35:54;16.17;;;14.57;;
23730;SDS011;12046;44.702;10.622;2023-05-07T04:38:19;15.68;;;14.10;;
23730;SDS011;12046;44.702;10.622;2023-05-07T04:40:45;14.90;;;13.30;;
23730;SDS011;12046;44.702;10.622;2023-05-07T04:43:12;14.70;;;13.40;;
23730;SDS011;12046;44.702;10.622;2023-05-07T04:45:38;14.25;;;13.05;;
23730;SDS011;12046;44.702;10.622;2023-05-07T04:48:06;19.83;;;14.75;;
23730;SDS011;12046;44.702;10.622;2023-05-07T04:50:34;15.40;;;14.10;;
23730;SDS011;12046;44.702;10.622;2023-05-07T04:53:00;16.58;;;15.05;;
23730;SDS011;12046;44.702;10.622;2023-05-07T04:55:26;16.35;;;13.95;;
23730;SDS011;12046;44.702;10.622;2023-05-07T04:57:52;14.85;;;13.30;;
23730;SDS011;12046;44.702;10.622;2023-05-07T05:00:18;14.57;;;12.98;;
23730;SDS011;12046;44.702;10.622;2023-05-07T05:02:45;14.27;;;12.95;;
23730;SDS011;12046;44.702;10.622;2023-05-07T05:05:11;14.35;;;12.70;;
23730;SDS011;12046;44.702;10.622;2023-05-07T05:07:37;14.45;;;12.93;;
23730;SDS011;12046;44.702;10.622;2023-05-07T05:10:03;13.45;;;12.15;;
23730;SDS011;12046;44.702;10.622;2023-05-07T05:12:30;13.32;;;11.85;;
23730;SDS011;12046;44.702;10.622;2023-05-07T05:14:56;12.18;;;11.02;;
23730;SDS011;12046;44.702;10.622;2023-05-07T05:17:22;12.02;;;10.68;;
23730;SDS011;12046;44.702;10.622;2023-05-07T05:19:48;13.77;;;10.65;;
23730;SDS011;12046;44.702;10.622;2023-05-07T05:22:13;10.65;;;9.65;;
23730;SDS011;12046;44.702;10.622;2023-05-07T05:24:40;9.77;;;8.77;;
23730;SDS011;12046;44.702;10.622;2023-05-07T05:27:06;9.80;;;8.73;;
23730;SDS011;12046;44.702;10.622;2023-05-07T05:29:31;9.98;;;9.02;;
23730;SDS011;12046;44.702;10.622;2023-05-07T05:31:57;9.48;;;8.57;;
23730;SDS011;12046;44.702;10.622;2023-05-07T05:34:23;8.50;;;7.75;;
23730;SDS011;12046;44.702;10.622;2023-05-07T05:36:49;7.72;;;7.05;;
23730;SDS011;12046;44.702;10.622;2023-05-07T05:39:15;6.88;;;6.28;;
23730;SDS011;12046;44.702;10.622;2023-05-07T05:41:41;7.32;;;6.65;;
23730;SDS011;12046;44.702;10.622;2023-05-07T05:44:06;6.75;;;6.25;;
23730;SDS011;12046;44.702;10.622;2023-05-07T05:46:32;5.93;;;5.35;;
23730;SDS011;12046;44.702;10.622;2023-05-07T05:48:59;7.15;;;5.70;;
23730;SDS011;12046;44.702;10.622;2023-05-07T05:51:25;5.45;;;4.97;;
23730;SDS011;12046;44.702;10.622;2023-05-07T05:53:51;6.18;;;5.32;;
23730;SDS011;12046;44.702;10.622;2023-05-07T05:56:17;5.28;;;4.88;;
23730;SDS011;12046;44.702;10.622;2023-05-07T05:58:43;5.35;;;4.78;;
23730;SDS011;12046;44.702;10.622;2023-05-07T06:01:09;5.20;;;4.75;;
23730;SDS011;12046;44.702;10.622;2023-05-07T06:03:36;6.50;;;4.95;;
23730;SDS011;12046;44.702;10.622;2023-05-07T06:06:02;9.82;;;5.30;;
23730;SDS011;12046;44.702;10.622;2023-05-07T06:08:29;5.85;;;4.80;;
23730;SDS011;12046;44.702;10.622;2023-05-07T06:10:55;5.18;;;4.78;;
23730;SDS011;12046;44.702;10.622;2023-05-07T06:13:21;5.20;;;4.55;;
23730;SDS011;12046;44.702;10.622;2023-05-07T06:15:48;7.05;;;6.28;;
23730;SDS011;12046;44.702;10.622;2023-05-07T06:18:14;7.35;;;6.35;;
23730;SDS011;12046;44.702;10.622;2023-05-07T06:20:40;6.45;;;5.85;;
23730;SDS011;12046;44.702;10.622;2023-05-07T06:23:05;6.72;;;6.03;;
23730;SDS011;12046;44.702;10.622;2023-05-07T06:25:31;9.93;;;6.30;;
23730;SDS011;12046;44.702;10.622;2023-05-07T06:27:57;7.75;;;5.65;;
23730;SDS011;12046;44.702;10.622;2023-05-07T06:30:23;7.70;;;5.18;;
23730;SDS011;12046;44.702;10.622;2023-05-07T06:32:49;5.97;;;5.38;;
23730;SDS011;12046;44.702;10.622;2023-05-07T06:35:14;5.13;;;4.72;;
23730;SDS011;12046;44.702;10.622;2023-05-07T06:37:41;5.68;;;5.05;;
23730;SDS011;12046;44.702;10.622;2023-05-07T06:40:08;8.98;;;5.55;;
23730;SDS011;12046;44.702;10.622;2023-05-07T06:42:35;5.85;;;5.35;;
23730;SDS011;12046;44.702;10.622;2023-05-07T06:45:02;7.20;;;5.07;;
23730;SDS011;12046;44.702;10.622;2023-05-07T06:47:27;6.18;;;5.43;;
23730;SDS011;12046;44.702;10.622;2023-05-07T06:49:53;8.43;;;6.07;;
23730;SDS011;12046;44.702;10.622;2023-05-07T06:52:19;8.07;;;7.28;;
23730;SDS011;12046;44.702;10.622;2023-05-07T06:54:45;8.80;;;7.90;;
23730;SDS011;12046;44.702;10.622;2023-05-07T06:57:11;12.00;;;7.75;;
23730;SDS011;12046;44.702;10.622;2023-05-07T06:59:37;8.73;;;7.88;;
23730;SDS011;12046;44.702;10.622;2023-05-07T07:02:03;8.27;;;7.57;;
23730;SDS011;12046;44.702;10.622;2023-05-07T07:04:28;10.18;;;8.93;;
23730;SDS011;12046;44.702;10.622;2023-05-07T07:06:55;13.25;;;10.38;;
23730;SDS011;12046;44.702;10.622;2023-05-07T07:09:22;14.15;;;10.85;;
23730;SDS011;12046;44.702;10.622;2023-05-07T07:11:48;12.82;;;11.32;;
23730;SDS011;12046;44.702;10.622;2023-05-07T07:14:14;12.68;;;11.48;;
23730;SDS011;12046;44.702;10.622;2023-05-07T07:16:40;12.85;;;11.65;;
23730;SDS011;12046;44.702;10.622;2023-05-07T07:19:06;15.20;;;12.70;;
23730;SDS011;12046;44.702;10.622;2023-05-07T07:21:32;12.73;;;11.63;;
23730;SDS011;12046;44.702;10.622;2023-05-07T07:23:58;15.23;;;12.85;;
23730;SDS011;12046;44.702;10.622;2023-05-07T07:26:24;13.95;;;12.55;;
23730;SDS011;12046;44.702;10.622;2023-05-07T07:28:50;17.27;;;15.30;;
23730;SDS011;12046;44.702;10.622;2023-05-07T07:31:15;18.38;;;16.60;;
23730;SDS011;12046;44.702;10.622;2023-05-07T07:33:44;21.23;;;18.08;;
23730;SDS011;12046;44.702;10.622;2023-05-07T07:36:10;16.35;;;13.88;;
23730;SDS011;12046;44.702;10.622;2023-05-07T07:38:36;16.85;;;15.05;;
23730;SDS011;12046;44.702;10.622;2023-05-07T07:41:02;18.92;;;17.10;;
23730;SDS011;12046;44.702;10.622;2023-05-07T07:43:28;19.20;;;17.02;;
23730;SDS011;12046;44.702;10.622;2023-05-07T07:45:54;18.08;;;16.20;;
23730;SDS011;12046;44.702;10.622;2023-05-07T07:48:19;18.02;;;16.23;;
23730;SDS011;12046;44.702;10.622;2023-05-07T07:50:48;16.48;;;14.98;;
23730;SDS011;12046;44.702;10.622;2023-05-07T07:53:15;17.45;;;15.70;;
23730;SDS011;12046;44.702;10.622;2023-05-07T07:55:41;17.02;;;15.35;;
23730;SDS011;12046;44.702;10.622;2023-05-07T07:58:07;17.00;;;15.25;;
23730;SDS011;12046;44.702;10.622;2023-05-07T08:00:33;13.73;;;12.45;;
23730;SDS011;12046;44.702;10.622;2023-05-07T08:02:59;18.65;;;13.02;;
23730;SDS011;12046;44.702;10.622;2023-05-07T08:05:25;13.63;;;12.23;;
23730;SDS011;12046;44.702;10.622;2023-05-07T08:07:51;13.45;;;11.43;;
23730;SDS011;12046;44.702;10.622;2023-05-07T08:10:18;13.10;;;11.82;;
23730;SDS011;12046;44.702;10.622;2023-05-07T08:12:50;14.30;;;12.82;;
23730;SDS011;12046;44.702;10.622;2023-05-07T08:15:25;12.88;;;11.55;;
23730;SDS011;12046;44.702;10.622;2023-05-07T08:17:51;12.93;;;11.52;;
23730;SDS011;12046;44.702;10.622;2023-05-07T08:20:17;12.38;;;11.20;;
23730;SDS011;12046;44.702;10.622;2023-05-07T08:22:43;11.98;;;10.88;;
23730;SDS011;12046;44.702;10.622;2023-05-07T08:25:09;12.80;;;11.60;;
23730;SDS011;12046;44.702;10.622;2023-05-07T08:27:35;11.70;;;10.60;;
23730;SDS011;12046;44.702;10.622;2023-05-07T08:30:01;13.35;;;10.50;;
23730;SDS011;12046;44.702;10.622;2023-05-07T08:32:27;12.18;;;11.05;;
23730;SDS011;12046;44.702;10.622;2023-05-07T08:34:53;10.70;;;9.52;;
23730;SDS011;12046;44.702;10.622;2023-05-07T08:37:19;11.52;;;10.35;;
23730;SDS011;12046;44.702;10.622;2023-05-07T08:39:45;11.52;;;10.27;;
23730;SDS011;12046;44.702;10.622;2023-05-07T08:42:11;9.15;;;8.32;;
23730;SDS011;12046;44.702;10.622;2023-05-07T08:44:38;11.52;;;9.88;;
23730;SDS011;12046;44.702;10.622;2023-05-07T08:47:06;13.73;;;9.90;;
23730;SDS011;12046;44.702;10.622;2023-05-07T08:49:33;10.63;;;9.43;;
23730;SDS011;12046;44.702;10.622;2023-05-07T08:52:00;11.75;;;10.45;;
23730;SDS011;12046;44.702;10.622;2023-05-07T08:54:26;11.43;;;10.23;;
23730;SDS011;12046;44.702;10.622;2023-05-07T08:56:54;11.13;;;10.23;;
23730;SDS011;12046;44.702;10.622;2023-05-07T08:59:20;9.15;;;8.25;;
23730;SDS011;12046;44.702;10.622;2023-05-07T09:01:46;10.13;;;9.23;;
23730;SDS011;12046;44.702;10.622;2023-05-07T09:04:11;9.18;;;8.38;;
23730;SDS011;12046;44.702;10.622;2023-05-07T09:06:38;14.80;;;10.27;;
23730;SDS011;12046;44.702;10.622;2023-05-07T09:09:07;9.35;;;8.38;;
23730;SDS011;12046;44.702;10.622;2023-05-07T09:11:33;10.02;;;9.13;;
23730;SDS011;12046;44.702;10.622;2023-05-07T09:13:59;9.00;;;8.02;;
23730;SDS011;12046;44.702;10.622;2023-05-07T09:16:29;9.13;;;8.32;;
23730;SDS011;12046;44.702;10.622;2023-05-07T09:18:57;8.68;;;7.25;;
23730;SDS011;12046;44.702;10.622;2023-05-07T09:21:24;7.75;;;7.05;;
23730;SDS011;12046;44.702;10.622;2023-05-07T09:23:50;8.45;;;7.75;;
23730;SDS011;12046;44.702;10.622;2023-05-07T09:26:17;10.30;;;7.95;;
23730;SDS011;12046;44.702;10.622;2023-05-07T09:28:44;9.05;;;8.15;;
23730;SDS011;12046;44.702;10.622;2023-05-07T09:31:11;7.85;;;7.15;;
23730;SDS011;12046;44.702;10.622;2023-05-07T09:33:38;10.00;;;7.72;;
23730;SDS011;12046;44.702;10.622;2023-05-07T09:36:04;8.23;;;7.50;;
23730;SDS011;12046;44.702;10.622;2023-05-07T09:38:34;7.00;;;6.30;;
23730;SDS011;12046;44.702;10.622;2023-05-07T09:41:05;7.68;;;5.20;;
23730;SDS011;12046;44.702;10.622;2023-05-07T09:43:32;6.30;;;5.65;;
23730;SDS011;12046;44.702;10.622;2023-05-07T09:46:13;7.30;;;6.57;;
23730;SDS011;12046;44.702;10.622;2023-05-07T09:48:42;5.80;;;5.25;;
23730;SDS011;12046;44.702;10.622;2023-05-07T09:51:21;6.82;;;5.43;;
23730;SDS011;12046;44.702;10.622;2023-05-07T09:53:54;5.75;;;5.25;;
23730;SDS011;12046;44.702;10.622;2023-05-07T09:56:22;5.15;;;4.65;;
23730;SDS011;12046;44.702;10.622;2023-05-07T09:58:48;4.63;;;4.15;;
23730;SDS011;12046;44.702;10.622;2023-05-07T10:01:16;5.50;;;4.90;;
23730;SDS011;12046;44.702;10.622;2023-05-07T10:03:44;6.57;;;4.10;;
23730;SDS011;12046;44.702;10.622;2023-05-07T10:06:11;4.93;;;4.43;;
23730;SDS011;12046;44.702;10.622;2023-05-07T10:08:38;5.90;;;5.40;;
23730;SDS011;12046;44.702;10.622;2023-05-07T10:11:04;6.13;;;4.47;;
23730;SDS011;12046;44.702;10.622;2023-05-07T10:13:32;5.60;;;4.57;;
23730;SDS011;12046;44.702;10.622;2023-05-07T10:16:02;4.47;;;4.07;;
23730;SDS011;12046;44.702;10.622;2023-05-07T10:18:31;4.93;;;4.25;;
23730;SDS011;12046;44.702;10.622;2023-05-07T10:21:08;5.30;;;4.60;;
23730;SDS011;12046;44.702;10.622;2023-05-07T10:23:41;5.35;;;4.85;;
23730;SDS011;12046;44.702;10.622;2023-05-07T10:26:20;4.72;;;4.22;;
23730;SDS011;12046;44.702;10.622;2023-05-07T10:28:49;7.40;;;5.13;;
23730;SDS011;12046;44.702;10.622;2023-05-07T10:34:17;8.40;;;5.95;;
23730;SDS011;12046;44.702;10.622;2023-05-07T10:36:57;7.47;;;5.78;;
23730;SDS011;12046;44.702;10.622;2023-05-07T10:39:24;7.00;;;5.28;;
23730;SDS011;12046;44.702;10.622;2023-05-07T10:41:50;6.53;;;5.53;;
23730;SDS011;12046;44.702;10.622;2023-05-07T10:44:25;7.38;;;5.90;;
23730;SDS011;12046;44.702;10.622;2023-05-07T10:47:11;5.45;;;4.95;;
23730;SDS011;12046;44.702;10.622;2023-05-07T10:50:21;7.43;;;5.95;;
23730;SDS011;12046;44.702;10.622;2023-05-07T10:52:30;6.28;;;5.68;;
23730;SDS011;12046;44.702;10.622;2023-05-07T10:57:42;6.85;;;6.25;;
23730;SDS011;12046;44.702;10.622;2023-05-07T11:05:29;5.00;;;4.65;;
23730;SDS011;12046;44.702;10.622;2023-05-07T11:08:00;5.53;;;5.03;;
23730;SDS011;12046;44.702;10.622;2023-05-07T11:13:14;4.22;;;3.90;;
23730;SDS011;12046;44.702;10.622;2023-05-07T11:15:47;6.68;;;4.25;;
23730;SDS011;12046;44.702;10.622;2023-05-07T11:18:16;3.92;;;3.58;;
23730;SDS011;12046;44.702;10.622;2023-05-07T11:23:12;3.97;;;3.67;;
23730;SDS011;12046;44.702;10.622;2023-05-07T11:25:58;4.55;;;4.25;;
23730;SDS011;12046;44.702;10.622;2023-05-07T11:28:36;6.15;;;4.13;;
23730;SDS011;12046;44.702;10.622;2023-05-07T11:31:03;5.55;;;3.90;;
23730;SDS011;12046;44.702;10.622;2023-05-07T11:33:30;5.63;;;5.03;;
23730;SDS011;12046;44.702;10.622;2023-05-07T11:35:56;4.30;;;4.00;;
23730;SDS011;12046;44.702;10.622;2023-05-07T11:38:22;4.55;;;4.15;;
23730;SDS011;12046;44.702;10.622;2023-05-07T11:40:50;7.95;;;4.43;;
23730;SDS011;12046;44.702;10.622;2023-05-07T11:43:16;3.80;;;3.40;;
23730;SDS011;12046;44.702;10.622;2023-05-07T11:45:43;7.30;;;4.10;;
23730;SDS011;12046;44.702;10.622;2023-05-07T11:48:11;4.35;;;3.95;;
23730;SDS011;12046;44.702;10.622;2023-05-07T11:50:54;4.70;;;4.03;;
23730;SDS011;12046;44.702;10.622;2023-05-07T11:53:25;5.50;;;3.75;;
23730;SDS011;12046;44.702;10.622;2023-05-07T11:55:52;8.70;;;3.53;;
23730;SDS011;12046;44.702;10.622;2023-05-07T11:58:20;4.60;;;3.50;;
23730;SDS011;12046;44.702;10.622;2023-05-07T12:00:48;3.95;;;3.55;;
23730;SDS011;12046;44.702;10.622;2023-05-07T12:03:15;3.88;;;3.58;;
23730;SDS011;12046;44.702;10.622;2023-05-07T12:05:40;3.28;;;3.00;;
23730;SDS011;12046;44.702;10.622;2023-05-07T12:08:07;3.35;;;2.97;;
23730;SDS011;12046;44.702;10.622;2023-05-07T12:10:33;5.05;;;3.00;;
23730;SDS011;12046;44.702;10.622;2023-05-07T12:12:59;4.10;;;2.70;;
23730;SDS011;12046;44.702;10.622;2023-05-07T12:15:25;3.50;;;3.20;;
23730;SDS011;12046;44.702;10.622;2023-05-07T12:17:51;3.28;;;3.08;;
23730;SDS011;12046;44.702;10.622;2023-05-07T12:20:17;3.60;;;2.63;;
23730;SDS011;12046;44.702;10.622;2023-05-07T12:22:43;2.88;;;2.67;;
23730;SDS011;12046;44.702;10.622;2023-05-07T12:25:10;3.20;;;2.90;;
23730;SDS011;12046;44.702;10.622;2023-05-07T12:27:38;6.18;;;2.90;;
23730;SDS011;12046;44.702;10.622;2023-05-07T12:30:05;3.10;;;2.55;;
23730;SDS011;12046;44.702;10.622;2023-05-07T12:32:34;3.60;;;3.30;;
23730;SDS011;12046;44.702;10.622;2023-05-07T12:35:01;5.50;;;3.30;;
23730;SDS011;12046;44.702;10.622;2023-05-07T12:37:27;4.30;;;3.10;;
23730;SDS011;12046;44.702;10.622;2023-05-07T12:40:09;3.20;;;2.58;;
23730;SDS011;12046;44.702;10.622;2023-05-07T12:42:36;3.70;;;3.38;;
23730;SDS011;12046;44.702;10.622;2023-05-07T12:45:10;3.75;;;2.90;;
23730;SDS011;12046;44.702;10.622;2023-05-07T12:47:47;3.80;;;2.60;;
23730;SDS011;12046;44.702;10.622;2023-05-07T12:50:13;4.30;;;2.72;;
23730;SDS011;12046;44.702;10.622;2023-05-07T12:52:39;3.33;;;2.78;;
23730;SDS011;12046;44.702;10.622;2023-05-07T12:55:05;3.15;;;2.38;;
23730;SDS011;12046;44.702;10.622;2023-05-07T12:57:39;2.50;;;2.30;;
23730;SDS011;12046;44.702;10.622;2023-05-07T13:02:33;4.20;;;2.60;;
23730;SDS011;12046;44.702;10.622;2023-05-07T13:04:59;3.30;;;2.58;;
23730;SDS011;12046;44.702;10.622;2023-05-07T13:07:25;2.85;;;2.65;;
23730;SDS011;12046;44.702;10.622;2023-05-07T13:09:51;5.28;;;2.85;;
23730;SDS011;12046;44.702;10.622;2023-05-07T13:12:17;2.72;;;2.50;;
23730;SDS011;12046;44.702;10.622;2023-05-07T13:14:42;3.38;;;2.65;;
23730;SDS011;12046;44.702;10.622;2023-05-07T13:17:08;5.18;;;3.20;;
23730;SDS011;12046;44.702;10.622;2023-05-07T13:19:34;3.95;;;3.05;;
23730;SDS011;12046;44.702;10.622;2023-05-07T13:22:02;3.38;;;3.08;;
23730;SDS011;12046;44.702;10.622;2023-05-07T13:24:28;5.72;;;2.58;;
23730;SDS011;12046;44.702;10.622;2023-05-07T13:26:54;3.50;;;2.80;;
23730;SDS011;12046;44.702;10.622;2023-05-07T13:29:20;3.78;;;2.70;;
23730;SDS011;12046;44.702;10.622;2023-05-07T13:31:54;4.75;;;2.88;;
23730;SDS011;12046;44.702;10.622;2023-05-07T13:34:20;4.07;;;2.58;;
23730;SDS011;12046;44.702;10.622;2023-05-07T13:36:46;3.53;;;3.22;;
23730;SDS011;12046;44.702;10.622;2023-05-07T13:39:12;3.08;;;2.88;;
23730;SDS011;12046;44.702;10.622;2023-05-07T13:41:38;3.25;;;2.95;;
23730;SDS011;12046;44.702;10.622;2023-05-07T13:44:04;4.55;;;2.83;;
23730;SDS011;12046;44.702;10.622;2023-05-07T13:46:32;3.80;;;2.90;;
23730;SDS011;12046;44.702;10.622;2023-05-07T13:48:58;2.92;;;2.55;;
23730;SDS011;12046;44.702;10.622;2023-05-07T13:51:24;3.17;;;2.88;;
23730;SDS011;12046;44.702;10.622;2023-05-07T13:53:51;4.22;;;2.50;;
23730;SDS011;12046;44.702;10.622;2023-05-07T13:56:17;2.92;;;2.40;;
23730;SDS011;12046;44.702;10.622;2023-05-07T13:58:43;3.05;;;2.85;;
23730;SDS011;12046;44.702;10.622;2023-05-07T14:01:09;6.68;;;2.63;;
23730;SDS011;12046;44.702;10.622;2023-05-07T14:03:35;4.45;;;3.05;;
23730;SDS011;12046;44.702;10.622;2023-05-07T14:06:03;2.78;;;2.40;;
23730;SDS011;12046;44.702;10.622;2023-05-07T14:08:29;2.70;;;2.50;;
23730;SDS011;12046;44.702;10.622;2023-05-07T14:10:55;2.38;;;2.20;;
23730;SDS011;12046;44.702;10.622;2023-05-07T14:13:21;4.47;;;2.70;;
23730;SDS011;12046;44.702;10.622;2023-05-07T14:15:47;2.92;;;2.42;;
23730;SDS011;12046;44.702;10.622;2023-05-07T14:18:14;5.93;;;2.70;;
23730;SDS011;12046;44.702;10.622;2023-05-07T14:20:40;5.70;;;2.53;;
23730;SDS011;12046;44.702;10.622;2023-05-07T14:23:08;3.10;;;2.50;;
23730;SDS011;12046;44.702;10.622;2023-05-07T14:25:34;4.60;;;2.20;;
23730;SDS011;12046;44.702;10.622;2023-05-07T14:28:00;2.90;;;2.60;;
23730;SDS011;12046;44.702;10.622;2023-05-07T14:30:26;2.47;;;2.28;;
23730;SDS011;12046;44.702;10.622;2023-05-07T14:32:52;2.67;;;2.47;;
23730;SDS011;12046;44.702;10.622;2023-05-07T14:35:17;2.55;;;2.35;;
23730;SDS011;12046;44.702;10.622;2023-05-07T14:37:44;2.53;;;2.33;;
23730;SDS011;12046;44.702;10.622;2023-05-07T14:40:10;3.65;;;3.13;;
23730;SDS011;12046;44.702;10.622;2023-05-07T14:42:36;3.10;;;2.78;;